map of ABS home
Great Circle Mapper logo
ABS - Airport
Location
City:  Abu Simbel, Egypt
ICAO / IATA:HEBL / ABS

Details
Type:Airport (Aerodrome, Airfield)
Use:Public/Civil
Latitude:2222'33"N (22.375953)
Longitude:3136'42"E (31.611722)
Datum:WGS 1984
Elevation:616 ft (188 m)
Runways:1
Longest:9843 × 148 ft (3000 × 45 m), paved

Time
Time Zone:UTC+2
Local Time:

Weather
METAR:HEBL 220200Z 34008KT CAVOK 23/07 Q1011 NOSIG
TAF:HEBL 220500Z 2206/2312 36012KT CAVOK

Related Locations
Nearby:
Farthest:TUB: 12338 mi / 19857 km
Tubuai, Tubuai Islands, Austral Islands, PF

Find:

   beyond  
but within

Other Information
Maps:
NOTAMs:
Links:
Sources:

  
flag of Egypt   

Sectional Chart

Flight Planning
at skyvector.com

Satellite Image

Google Maps Satellite View

 

Copyright © 2004-2014 Karl L. Swartz. All rights reserved.
The Great Circle Mapper name and logo are trademarks of the Great Circle Mapper.
All other trademarks mentioned herein belong to their respective owners.
Please see credits for attibutions and further copyright information.

  Follow gcmap on Facebook Follow gcmap on Twitter

hCard Microformat

Geo Microformat